Thunder radar more information blitzortung!


Radar de pluja more information rain snow radar


Visita la nostra xarxa de llocs de meteo:

Template documentation
and downloads

And another site



Wind From: 11-12-2017 11:00 Until: 14:59 warning for: Wind Level: Yellow info button

Pagina Historial Weather Underground text

Diari Resum Juliol 15, 2017 Unitats:  Imperial    Mètric   Tant
« Previous Dia
SegĂźent Dia »
Diari Setmana Mensual Anual Personalitzada
  Maxima: Minima: Media:
Temperatura: 94.3 °F 75.6 °F 86.2 °F
Punt de rosada: 69.3 °F 63.3 °F 65.5 °F
Humitat: 73 % 40 % 51 %
Wind Speed: 13.8 mph 2.3 mph 5.8 mph
RĂ fegues de vent: 13.8 mph - -
Vent:- - SSW
Pression baro: 30.1 in 29.9 in -
Precipitacions: 0 in    
Historical Graphs
 
 
Dades de taula per Juliol 15, 2017
Temps Temperatura Punt de rosada Pression baro Vent Wind Speed RĂ fegues de vent Humitat Rainfall Rate (Hourly)
00:04 76.1 °F 66.7 °F 30.1 in WSW 2.3 mph 2.3 mph 73 % 0 in
10:32 80.4 °F 68.5 °F 30.1 in West 2.3 mph 2.7 mph 67 % 0 in
10:37 80.4 °F 68 °F 30.1 in ESE 3.5 mph 3.5 mph 66 % 0 in
10:42 80.4 °F 68 °F 30.1 in ENE 3.5 mph 3.5 mph 66 % 0 in
10:47 81.3 °F 68.4 °F 30.1 in SSE 2.9 mph 2.9 mph 65 % 0 in
10:52 81.7 °F 68.4 °F 30.1 in ESE 3.5 mph 3.5 mph 64 % 0 in
10:57 82 °F 68.7 °F 30.1 in South 2.4 mph 2.4 mph 64 % 0 in
10:58 82 °F 68.7 °F 30.1 in South 2.4 mph 2.4 mph 64 % 0 in
11:03 83.1 °F 69.3 °F 30.1 in South 3.5 mph 3.5 mph 63 % 0 in
11:08 83.7 °F 69.3 °F 30.1 in SSE 3.8 mph 3.8 mph 62 % 0 in
11:13 83.3 °F 68 °F 30.1 in SW 5.8 mph 5.8 mph 60 % 0 in
11:18 84.6 °F 68.7 °F 30.1 in SW 6.4 mph 6.4 mph 59 % 0 in
11:23 84.9 °F 67.5 °F 30.1 in SE 6.2 mph 6.2 mph 56 % 0 in
11:28 85.5 °F 67.5 °F 30.1 in SE 4.6 mph 4.6 mph 55 % 0 in
11:33 85.8 °F 67.3 °F 30.1 in SSE 3.5 mph 3.5 mph 54 % 0 in
11:38 86.5 °F 67.8 °F 30 in East 3.5 mph 3.5 mph 54 % 0 in
11:43 87.1 °F 68.4 °F 30 in SW 2.4 mph 2.4 mph 54 % 0 in
11:48 87.6 °F 68.9 °F 30 in SW 4.3 mph 4.3 mph 54 % 0 in
11:53 87.1 °F 67.3 °F 30 in SW 5.8 mph 5.8 mph 52 % 0 in
11:58 87.8 °F 66.7 °F 30 in SW 4.3 mph 4.3 mph 50 % 0 in
12:00 88 °F 66.9 °F 30 in SW 5.8 mph 5.8 mph 50 % 0 in
12:05 88.3 °F 67.3 °F 30 in WSW 6 mph 6 mph 50 % 0 in
12:10 88.7 °F 67.1 °F 30 in SSE 3.5 mph 3.5 mph 49 % 0 in
12:15 89.8 °F 66.2 °F 30 in South 3.6 mph 3.6 mph 46 % 0 in
12:20 89.8 °F 66.9 °F 30 in SSW 3.5 mph 3.5 mph 47 % 0 in
12:25 89.8 °F 67.5 °F 30 in SSW 5.8 mph 5.8 mph 48 % 0 in
12:30 89.2 °F 66.9 °F 30 in SSW 4.6 mph 4.6 mph 48 % 0 in
12:35 89.6 °F 66.7 °F 30 in NNW 3.5 mph 3.5 mph 47 % 0 in
12:40 89.2 °F 65.8 °F 30 in SSW 6.9 mph 6.9 mph 46 % 0 in
12:45 88.9 °F 65.5 °F 30 in WNW 4.6 mph 4.6 mph 46 % 0 in
12:50 90 °F 65.8 °F 30 in SSW 3.5 mph 3.5 mph 45 % 0 in
12:55 91 °F 66.7 °F 30 in WSW 3.6 mph 3.6 mph 45 % 0 in
13:00 90.9 °F 66.6 °F 30 in South 8.1 mph 8.1 mph 45 % 0 in
13:05 90.1 °F 65.8 °F 30 in SE 3.5 mph 3.5 mph 45 % 0 in
13:10 91.4 °F 66.4 °F 30 in South 4.6 mph 4.6 mph 44 % 0 in
13:15 89.8 °F 65.7 °F 30 in West 6.4 mph 6.4 mph 45 % 0 in
13:20 89.8 °F 64.9 °F 30 in WNW 4.6 mph 4.6 mph 44 % 0 in
13:25 90.7 °F 65.8 °F 30 in SW 4.6 mph 4.6 mph 44 % 0 in
13:30 91 °F 66 °F 30 in SSW 2.6 mph 2.6 mph 44 % 0 in
13:35 90.9 °F 66.6 °F 30 in SSW 4.6 mph 4.6 mph 45 % 0 in
13:40 91 °F 66.7 °F 30 in SW 4.6 mph 4.6 mph 45 % 0 in
13:41 91.4 °F 66.4 °F 30 in East 2.3 mph 2.3 mph 44 % 0 in
13:46 92.1 °F 66.4 °F 30 in ENE 5.8 mph 5.8 mph 43 % 0 in
13:51 91.4 °F 66.4 °F 30 in ESE 3.5 mph 3.5 mph 44 % 0 in
13:56 91.2 °F 66.9 °F 30 in WSW 8.1 mph 8.1 mph 45 % 0 in
14:01 90 °F 65.8 °F 30 in South 5.8 mph 5.8 mph 45 % 0 in
14:06 90 °F 65.8 °F 30 in SSE 5.8 mph 5.8 mph 45 % 0 in
14:11 90.7 °F 67.1 °F 30 in SW 4.3 mph 4.3 mph 46 % 0 in
14:16 91.4 °F 67.6 °F 30 in SW 5.8 mph 5.8 mph 46 % 0 in
14:21 90.3 °F 66.7 °F 30 in SW 4.6 mph 4.6 mph 46 % 0 in
14:26 90.7 °F 67.1 °F 30 in WSW 9.2 mph 9.2 mph 46 % 0 in
14:31 90.9 °F 67.3 °F 30 in SW 6.9 mph 6.9 mph 46 % 0 in
14:36 91.6 °F 67.3 °F 30 in SSE 8.1 mph 8.1 mph 45 % 0 in
14:41 92.1 °F 67.6 °F 30 in WSW 2.4 mph 2.6 mph 45 % 0 in
14:46 92.7 °F 68.2 °F 30 in SW 6.4 mph 6.4 mph 45 % 0 in
14:51 92.5 °F 67.5 °F 30 in SW 11.5 mph 11.5 mph 44 % 0 in
14:56 92.3 °F 67.3 °F 30 in SSW 6.2 mph 6.2 mph 44 % 0 in
15:01 92.1 °F 67.1 °F 30 in WSW 3.1 mph 3.1 mph 44 % 0 in
15:06 92.1 °F 67.1 °F 30 in SW 10.4 mph 10.4 mph 44 % 0 in
15:11 92.3 °F 66.6 °F 30 in South 4.6 mph 4.6 mph 43 % 0 in
15:16 93.2 °F 67.5 °F 30 in West 3.5 mph 3.5 mph 43 % 0 in
15:21 93.7 °F 67.8 °F 30 in SW 3.5 mph 3.5 mph 43 % 0 in
15:26 93.7 °F 67.8 °F 30 in WSW 8.1 mph 8.1 mph 43 % 0 in
15:31 93.4 °F 66.9 °F 30 in SSW 3.5 mph 3.8 mph 42 % 0 in
15:36 93.9 °F 67.3 °F 30 in SSW 6.9 mph 6.9 mph 42 % 0 in
15:41 93.6 °F 66.9 °F 30 in SE 3.5 mph 3.5 mph 42 % 0 in
15:46 93 °F 66.6 °F 30 in SSW 4.6 mph 4.6 mph 42 % 0 in
15:51 93.4 °F 66.9 °F 30 in South 9.7 mph 9.7 mph 42 % 0 in
15:56 92.8 °F 66.4 °F 30 in South 6.9 mph 6.9 mph 42 % 0 in
16:01 93.4 °F 66.9 °F 30 in WNW 2.9 mph 2.9 mph 42 % 0 in
16:06 94.1 °F 67.5 °F 30 in WSW 3.5 mph 3.5 mph 42 % 0 in
16:11 94.3 °F 66.9 °F 30 in SW 5.8 mph 5.8 mph 41 % 0 in
16:16 93.7 °F 66.6 °F 30 in SW 9.2 mph 9.2 mph 41 % 0 in
16:21 93.4 °F 66.2 °F 30 in SW 9.2 mph 9.2 mph 41 % 0 in
16:26 92.8 °F 64.9 °F 30 in South 9.2 mph 9.2 mph 40 % 0 in
16:31 92.1 °F 64.2 °F 30 in WSW 8.1 mph 8.1 mph 40 % 0 in
16:36 91.6 °F 63.9 °F 30 in SSW 6.9 mph 6.9 mph 40 % 0 in
16:41 91.8 °F 64 °F 30 in WSW 8.1 mph 8.1 mph 40 % 0 in
16:46 91.9 °F 64.2 °F 30 in SSW 9.2 mph 9.2 mph 40 % 0 in
16:51 92.8 °F 65.7 °F 30 in SW 8.1 mph 8.1 mph 41 % 0 in
16:56 90.9 °F 63.9 °F 30 in West 10.4 mph 10.4 mph 41 % 0 in
17:01 91.4 °F 64.4 °F 30 in SSW 6.9 mph 6.9 mph 41 % 0 in
17:06 91.8 °F 64.8 °F 30 in SW 4.6 mph 4.6 mph 41 % 0 in
17:11 90.7 °F 63.7 °F 30 in West 8.1 mph 8.1 mph 41 % 0 in
17:12 91 °F 64.8 °F 30 in SSW 5.8 mph 5.8 mph 42 % 0 in
17:17 91.6 °F 64.6 °F 30 in SSW 8.1 mph 8.1 mph 41 % 0 in
17:22 90.9 °F 64.6 °F 30 in WSW 6.9 mph 6.9 mph 42 % 0 in
17:27 90.7 °F 64.4 °F 30 in South 6.9 mph 6.9 mph 42 % 0 in
17:32 91 °F 64.8 °F 30 in SSE 11.5 mph 11.5 mph 42 % 0 in
17:37 90 °F 63.9 °F 30 in SE 5.8 mph 5.8 mph 42 % 0 in
17:42 90 °F 63.9 °F 30 in South 8.1 mph 8.1 mph 42 % 0 in
17:47 89.2 °F 63.9 °F 30 in WSW 5.8 mph 5.8 mph 43 % 0 in
17:52 90 °F 64.6 °F 30 in SW 8.1 mph 8.1 mph 43 % 0 in
17:57 89.4 °F 64 °F 30 in WSW 5.8 mph 5.8 mph 43 % 0 in
18:02 90 °F 64.6 °F 30 in West 6.9 mph 6.9 mph 43 % 0 in
18:07 89.6 °F 64 °F 30 in SW 12.7 mph 12.7 mph 43 % 0 in
18:12 89.1 °F 63.7 °F 30 in SW 8.1 mph 8.1 mph 43 % 0 in
18:17 88.3 °F 63.7 °F 30 in WSW 10.4 mph 10.4 mph 44 % 0 in
18:22 87.6 °F 63.7 °F 30 in South 10.4 mph 10.4 mph 45 % 0 in
18:27 87.6 °F 63.7 °F 30 in SSW 9.2 mph 9.2 mph 45 % 0 in
18:32 87.4 °F 63.5 °F 30 in SW 13.8 mph 13.8 mph 45 % 0 in
18:37 87.4 °F 63.5 °F 29.9 in SW 11.5 mph 11.5 mph 45 % 0 in
18:42 87.3 °F 63.3 °F 29.9 in SW 9.2 mph 9.2 mph 45 % 0 in
18:47 86.5 °F 63.3 °F 29.9 in South 11.5 mph 11.5 mph 46 % 0 in
18:52 86.7 °F 63.5 °F 29.9 in SW 6.9 mph 6.9 mph 46 % 0 in
18:57 86.5 °F 63.9 °F 29.9 in North 7.8 mph 7.8 mph 47 % 0 in
19:02 86.9 °F 64.2 °F 29.9 in West 8.1 mph 8.1 mph 47 % 0 in
19:07 86.7 °F 64 °F 30 in SW 5.8 mph 5.8 mph 47 % 0 in
19:12 86.4 °F 64.4 °F 30 in SW 9.7 mph 9.7 mph 48 % 0 in
19:17 86.5 °F 64.6 °F 30 in SW 8.1 mph 8.1 mph 48 % 0 in
19:22 85.8 °F 63.9 °F 29.9 in WSW 5.8 mph 5.8 mph 48 % 0 in
19:25 85.6 °F 64.2 °F 29.9 in WSW 9.2 mph 9.2 mph 49 % 0 in
19:30 84.9 °F 63.7 °F 29.9 in South 10.4 mph 10.4 mph 49 % 0 in
19:35 84.7 °F 64 °F 29.9 in SW 9.8 mph 9.8 mph 50 % 0 in
19:40 84.2 °F 63.5 °F 30 in WSW 12.7 mph 12.7 mph 50 % 0 in
19:45 84 °F 64.6 °F 30 in WSW 8.1 mph 8.1 mph 52 % 0 in
19:50 84 °F 64.6 °F 30 in SW 6.9 mph 6.9 mph 52 % 0 in
19:55 83.8 °F 64.2 °F 30 in SW 5.8 mph 5.8 mph 52 % 0 in
20:00 83.5 °F 64 °F 30 in SSW 5.8 mph 5.8 mph 52 % 0 in
20:05 83.3 °F 64.4 °F 30 in WSW 7.6 mph 7.6 mph 53 % 0 in
20:10 82.8 °F 63.9 °F 30 in South 5.8 mph 5.8 mph 53 % 0 in
20:15 82.9 °F 64 °F 30 in WSW 2.3 mph 2.4 mph 53 % 0 in
20:20 82.9 °F 64 °F 30 in SW 6 mph 6 mph 53 % 0 in
20:25 82.4 °F 64 °F 30 in SW 9.2 mph 9.2 mph 54 % 0 in
20:30 82.2 °F 63.9 °F 30 in SSW 5.6 mph 5.6 mph 54 % 0 in
20:35 82 °F 64.2 °F 30 in WSW 5.8 mph 5.8 mph 55 % 0 in
20:40 81.9 °F 64 °F 30 in SSW 6.9 mph 6.9 mph 55 % 0 in
20:45 81.5 °F 63.9 °F 30 in SSW 6.9 mph 6.9 mph 55 % 0 in
20:50 81.3 °F 64 °F 30 in South 6.9 mph 6.9 mph 56 % 0 in
20:55 81 °F 64.2 °F 30 in SW 8.1 mph 8.1 mph 57 % 0 in
21:00 80.8 °F 64 °F 30 in WSW 8.1 mph 8.1 mph 57 % 0 in
21:05 80.4 °F 64.2 °F 30 in SW 6.9 mph 6.9 mph 58 % 0 in
21:10 80.2 °F 64.6 °F 30 in SSE 5.6 mph 5.6 mph 59 % 0 in
21:15 79.9 °F 64.2 °F 30 in SSW 6.9 mph 6.9 mph 59 % 0 in
21:20 79.9 °F 64.8 °F 30 in SSW 3.3 mph 3.3 mph 60 % 0 in
21:25 79.5 °F 64.4 °F 30 in SSW 4.6 mph 4.6 mph 60 % 0 in
21:30 79.3 °F 64.2 °F 30 in SW 8.1 mph 8.1 mph 60 % 0 in
21:35 79.2 °F 64.6 °F 30 in SW 5.8 mph 5.8 mph 61 % 0 in
21:40 79 °F 64.4 °F 30 in WSW 6.9 mph 6.9 mph 61 % 0 in
21:45 78.8 °F 64.2 °F 30 in South 4.6 mph 4.6 mph 61 % 0 in
21:50 78.6 °F 64.6 °F 30 in WSW 3.5 mph 3.5 mph 62 % 0 in
21:55 78.6 °F 64 °F 30 in SW 4.6 mph 4.6 mph 61 % 0 in
22:00 78.4 °F 63.9 °F 30 in SW 5.4 mph 5.4 mph 61 % 0 in
22:05 78.3 °F 64.2 °F 30 in SW 4 mph 4 mph 62 % 0 in
22:10 78.1 °F 64 °F 30 in SW 3.5 mph 3.5 mph 62 % 0 in
22:15 77.9 °F 63.9 °F 30 in WSW 3.5 mph 3.5 mph 62 % 0 in
22:20 77.9 °F 63.9 °F 30 in SW 3.5 mph 3.5 mph 62 % 0 in
22:25 77.7 °F 64 °F 30 in WSW 3.5 mph 3.5 mph 63 % 0 in
22:30 77.5 °F 63.9 °F 30 in SSW 2.3 mph 2.3 mph 63 % 0 in
22:35 77.5 °F 63.9 °F 30 in West 2.3 mph 2.3 mph 63 % 0 in
22:40 77.4 °F 64.2 °F 30 in WSW 3.5 mph 3.5 mph 64 % 0 in
22:45 77.2 °F 64 °F 30 in WSW 3.5 mph 3.5 mph 64 % 0 in
22:50 77 °F 63.9 °F 30 in WSW 4 mph 4 mph 64 % 0 in
22:55 76.8 °F 64.6 °F 30 in SW 2.9 mph 2.9 mph 66 % 0 in
23:00 76.8 °F 64.6 °F 30 in WSW 3.3 mph 3.3 mph 66 % 0 in
23:05 76.8 °F 64.6 °F 30 in West 2.3 mph 2.3 mph 66 % 0 in
23:10 76.6 °F 64.4 °F 30 in West 2.3 mph 2.3 mph 66 % 0 in
23:15 76.6 °F 64.9 °F 30 in WSW 2.4 mph 2.4 mph 67 % 0 in
23:20 76.5 °F 64.8 °F 30 in SW 3.5 mph 3.5 mph 67 % 0 in
23:25 76.3 °F 64.6 °F 30 in SW 3.5 mph 3.5 mph 67 % 0 in
23:30 76.1 °F 64.8 °F 30 in SW 4.6 mph 4.6 mph 68 % 0 in
23:35 75.9 °F 64.6 °F 30 in SW 3.5 mph 3.5 mph 68 % 0 in
23:40 75.9 °F 64.9 °F 30 in SSW 3.3 mph 3.3 mph 69 % 0 in
23:45 75.7 °F 64.8 °F 30 in SW 3.5 mph 3.5 mph 69 % 0 in
23:50 75.7 °F 64.8 °F 30 in SW 3.5 mph 3.5 mph 69 % 0 in
23:55 75.6 °F 65.1 °F 30 in WSW 4.6 mph 4.6 mph 70 % 0 in
Meteo Sesrovires
Elogis d' Weather Underground - 3.5 mb

Guio original per  Jim McMurry - jmcmurry@mwt.net Adaptat per a la plantilla per  Wim van der Kuil - Leuven-Template.eu

Trobareu la nostra informacio del temps tambe a:

Weather Underground

AWEKAS